Time;durP1;ratioP1;P1;durP2;ratioP2;P2;SDS_P1;SDS_P2;PMS_P1;PMS_P2;Temp;Humidity;BMP_temperature;BMP_pressure;BME280_temperature;BME280_humidity;BME280_pressure;Samples;Min_cycle;Max_cycle;Signal;HPM_P1;HPM_P2
2022/10/31 00:01:34;;;;;;;0.85;0.52;;;;;;;1.30;56.81;97853.63;4935072;29;20090;-88
2022/10/31 00:04:00;;;;;;;4.38;0.80;;;;;;;1.79;57.16;97933.25;4943401;29;20493;-89
2022/10/31 00:06:27;;;;;;;2.25;0.70;;;;;;;1.76;57.77;97933.84;4912906;29;20575;-91
2022/10/31 00:08:59;;;;;;;4.03;0.88;;;;;;;1.76;57.19;97919.56;4903473;29;20044;-93
2022/10/31 00:11:26;;;;;;;1.92;0.70;;;;;;;1.68;57.22;97904.03;4887225;29;20074;-93
2022/10/31 00:13:57;;;;;;;1.27;0.65;;;;;;;1.85;57.58;97924.03;4922968;29;20486;-92
2022/10/31 00:16:28;;;;;;;0.93;0.60;;;;;;;1.36;57.05;97859.75;4906691;29;20055;-95
2022/10/31 00:18:59;;;;;;;0.45;0.40;;;;;;;1.25;56.63;97836.72;4919246;29;20047;-93
2022/10/31 00:21:26;;;;;;;0.25;0.25;;;;;;;1.87;57.19;97926.41;4901909;29;20047;-89
2022/10/31 00:23:58;;;;;;;1.48;0.75;;;;;;;1.73;57.71;97907.47;4895675;29;20506;-93
2022/10/31 00:26:24;;;;;;;1.35;0.73;;;;;;;1.57;57.01;97874.53;4886490;29;20116;-90
2022/10/31 00:28:51;;;;;;;1.27;0.45;;;;;;;1.77;57.62;97897.72;4901955;29;20106;-92
2022/10/31 00:31:17;;;;;;;2.17;0.68;;;;;;;1.55;57.18;97863.25;4886314;29;20036;-95
2022/10/31 00:33:43;;;;;;;2.50;0.70;;;;;;;1.64;57.84;97880.38;4901809;29;20207;-93
2022/10/31 00:36:15;;;;;;;1.23;0.82;;;;;;;1.79;57.11;97900.94;4886891;29;20043;-92
2022/10/31 00:38:42;;;;;;;0.57;0.55;;;;;;;1.70;56.92;97881.13;4893902;29;20344;-90
2022/10/31 00:41:10;;;;;;;3.00;1.05;;;;;;;1.86;56.89;97903.25;4920850;29;20070;-91
2022/10/31 00:43:40;;;;;;;0.73;0.52;;;;;;;1.76;57.06;97879.97;4920633;29;20039;-95
2022/10/31 00:46:07;;;;;;;1.10;0.47;;;;;;;1.81;57.06;97887.94;4920120;29;20564;-91
2022/10/31 00:48:33;;;;;;;1.85;0.73;;;;;;;1.79;57.50;97900.94;4921091;29;20051;-91
2022/10/31 00:50:59;;;;;;;4.10;0.77;;;;;;;1.88;57.60;97911.84;4905868;29;20086;-91
2022/10/31 00:53:26;;;;;;;4.35;0.57;;;;;;;1.83;57.29;97918.09;4921113;29;20511;-92
2022/10/31 00:55:52;;;;;;;2.38;0.80;;;;;;;1.69;57.56;97894.84;4905619;29;20038;-91
2022/10/31 00:58:19;;;;;;;1.65;0.50;;;;;;;1.81;58.03;97884.47;4921972;29;20527;-92
2022/10/31 01:00:54;;;;;;;0.60;0.60;;;;;;;1.71;57.39;97887.28;4907047;29;20043;-91
2022/10/31 01:03:22;;;;;;;0.98;0.50;;;;;;;1.48;56.82;97841.25;4929138;28;20038;-92
2022/10/31 01:06:02;;;;;;;2.75;0.70;;;;;;;1.87;56.77;97899.47;4929466;28;20043;-92
2022/10/31 01:08:33;;;;;;;1.10;0.88;;;;;;;1.75;57.46;97886.41;4944592;28;20101;-93
2022/10/31 01:11:12;;;;;;;3.20;0.85;;;;;;;1.73;57.37;97883.22;4944862;28;20074;-95
2022/10/31 01:13:40;;;;;;;1.20;0.65;;;;;;;1.69;56.96;97871.44;4949938;28;20524;-93
2022/10/31 01:16:09;;;;;;;1.83;0.80;;;;;;;1.79;57.01;97898.22;4951489;29;20142;-91
2022/10/31 01:18:36;;;;;;;0.82;0.63;;;;;;;1.57;56.79;97871.84;4909084;29;20043;-91
2022/10/31 01:21:06;;;;;;;2.30;0.77;;;;;;;1.78;57.52;97887.72;4909680;29;20042;-91
2022/10/31 01:23:33;;;;;;;1.50;0.60;;;;;;;1.66;57.94;97872.00;4924605;29;20351;-93
2022/10/31 01:26:10;;;;;;;2.78;0.90;;;;;;;1.68;56.85;97888.66;4924736;29;20070;-93
2022/10/31 01:28:39;;;;;;;1.80;0.80;;;;;;;1.48;57.18;97846.66;4940918;29;20044;-89
2022/10/31 01:31:07;;;;;;;0.60;0.60;;;;;;;1.68;57.03;97877.09;4924976;29;20043;-91
2022/10/31 01:33:35;;;;;;;4.05;0.60;;;;;;;1.74;57.96;97892.09;4913926;28;20469;-94
2022/10/31 01:36:10;;;;;;;1.38;0.68;;;;;;;1.75;58.04;97866.75;4943816;28;20047;-95
2022/10/31 01:38:37;;;;;;;0.90;0.60;;;;;;;1.57;57.83;97866.47;4936493;29;20474;-91
2022/10/31 01:41:03;;;;;;;3.53;0.60;;;;;;;1.63;58.57;97870.69;4905997;29;20110;-91
2022/10/31 01:43:56;;;;;;;0.50;0.50;;;;;;;1.75;59.02;97893.69;4924941;29;20043;-90
2022/10/31 01:46:29;;;;;;;0.47;0.47;;;;;;;1.54;59.05;97861.66;4889566;29;20042;-95
2022/10/31 01:49:00;;;;;;;1.35;0.52;;;;;;;1.62;59.08;97879.88;4904771;29;20055;-91
2022/10/31 01:51:30;;;;;;;2.00;0.63;;;;;;;1.72;59.84;97895.06;4936237;29;20039;-92
2022/10/31 01:54:01;;;;;;;2.38;0.77;;;;;;;1.89;60.20;97910.75;4925032;28;20041;-91
2022/10/31 01:56:28;;;;;;;1.10;0.77;;;;;;;1.49;61.27;97871.69;4956446;29;20169;-90
2022/10/31 01:58:56;;;;;;;0.75;0.70;;;;;;;1.65;61.80;97908.09;4939972;29;20035;-91
2022/10/31 02:01:22;;;;;;;0.77;0.68;;;;;;;1.53;62.40;97903.16;4955580;29;20509;-93
2022/10/31 02:03:49;;;;;;;2.80;0.60;;;;;;;1.45;63.65;97893.00;4939643;29;20536;-96
2022/10/31 02:06:30;;;;;;;0.50;0.50;;;;;;;1.38;64.71;97896.03;4939655;29;20040;-92
2022/10/31 02:08:58;;;;;;;0.90;0.43;;;;;;;1.34;65.36;97892.31;4939053;29;20039;-95
2022/10/31 02:11:27;;;;;;;2.10;0.88;;;;;;;1.32;66.12;97885.63;4955938;28;20133;-91
2022/10/31 02:13:55;;;;;;;1.33;0.68;;;;;;;1.20;66.06;97898.72;4950613;28;20034;-92
2022/10/31 02:16:42;;;;;;;1.88;0.90;;;;;;;1.29;66.46;97894.28;4935128;29;20043;-91
2022/10/31 02:19:13;;;;;;;1.85;0.52;;;;;;;1.23;66.91;97901.63;4923216;29;20039;-90
2022/10/31 02:21:56;;;;;;;0.75;0.60;;;;;;;1.14;67.58;97882.59;4939322;29;20535;-89
2022/10/31 02:24:40;;;;;;;3.22;0.77;;;;;;;1.28;68.12;97906.94;4941978;28;20039;-90
2022/10/31 02:27:08;;;;;;;2.03;0.77;;;;;;;1.41;68.29;97927.78;4926678;28;20528;-88
2022/10/31 02:30:14;;;;;;;2.60;0.88;;;;;;;1.34;68.70;97918.44;4957957;28;20101;-91
2022/10/31 02:33:11;;;;;;;2.40;0.82;;;;;;;1.34;69.06;97913.88;4926788;28;20046;-90
2022/10/31 02:35:43;;;;;;;1.85;0.90;;;;;;;1.35;69.02;97917.34;4957911;28;20118;-93
2022/10/31 02:38:35;;;;;;;1.25;0.80;;;;;;;1.28;69.60;97914.22;4922130;29;20047;-91
2022/10/31 02:41:13;;;;;;;0.75;0.70;;;;;;;1.28;70.08;97928.47;4919633;29;20055;-95
2022/10/31 02:44:08;;;;;;;3.17;0.88;;;;;;;1.24;71.02;97921.25;4919671;29;20051;-90
2022/10/31 02:46:44;;;;;;;1.35;1.00;;;;;;;1.06;71.21;97899.38;4919829;29;20062;-90
2022/10/31 02:49:35;;;;;;;6.03;0.90;;;;;;;0.90;71.70;97906.00;4919772;29;20046;-90
2022/10/31 02:52:01;;;;;;;4.03;1.02;;;;;;;1.01;72.17;97904.00;4935430;29;20048;-90
2022/10/31 02:54:28;;;;;;;2.33;0.77;;;;;;;0.99;71.28;97906.97;4903976;28;20055;-94
2022/10/31 02:57:02;;;;;;;2.15;1.00;;;;;;;1.11;71.93;97911.97;4923995;29;20079;-94
2022/10/31 02:59:30;;;;;;;2.20;1.00;;;;;;;1.06;72.13;97909.31;4954375;29;20047;-90
2022/10/31 03:02:12;;;;;;;1.08;0.75;;;;;;;1.10;72.37;97921.16;4922765;29;20043;-95
2022/10/31 03:05:22;;;;;;;4.03;1.20;;;;;;;1.00;73.26;97900.53;4954523;29;20079;-90
2022/10/31 03:08:07;;;;;;;1.83;1.02;;;;;;;1.11;73.88;97928.91;4938746;28;20050;-94
2022/10/31 03:10:39;;;;;;;0.80;0.80;;;;;;;0.99;74.31;97931.19;4922528;29;20086;-89
2022/10/31 03:13:17;;;;;;;3.72;1.00;;;;;;;0.96;74.37;97934.47;4938466;29;20135;-90
2022/10/31 03:15:54;;;;;;;2.25;1.00;;;;;;;1.07;74.67;97922.50;4939802;29;20051;-88
2022/10/31 03:18:34;;;;;;;2.28;0.98;;;;;;;0.83;74.36;97890.22;4926787;29;20035;-89
2022/10/31 03:21:14;;;;;;;4.32;1.48;;;;;;;1.10;74.43;97927.31;4937987;29;20043;-91
2022/10/31 03:23:43;;;;;;;2.20;1.08;;;;;;;0.86;79.75;97915.72;4921682;29;20102;-92
2022/10/31 03:26:21;;;;;;;1.70;0.95;;;;;;;0.82;78.49;97920.84;4952225;28;20070;-93
2022/10/31 03:29:04;;;;;;;2.13;1.10;;;;;;;0.93;76.77;97929.66;4957199;28;20050;-91
2022/10/31 03:31:54;;;;;;;2.88;1.00;;;;;;;0.75;74.81;97887.31;4930841;29;20054;-91
2022/10/31 03:34:22;;;;;;;2.17;1.00;;;;;;;0.62;73.90;97862.69;4922388;29;20039;-92
2022/10/31 03:36:54;;;;;;;2.60;1.10;;;;;;;1.12;74.99;97927.81;4937825;29;20483;-94
2022/10/31 03:39:23;;;;;;;1.17;0.95;;;;;;;0.96;73.42;97906.75;4906755;29;20520;-96
2022/10/31 03:42:07;;;;;;;4.07;1.17;;;;;;;0.94;72.74;97907.03;4946953;28;20046;-92
2022/10/31 03:44:35;;;;;;;5.88;1.00;;;;;;;1.03;72.31;97921.47;4956899;28;20034;-91
2022/10/31 03:47:03;;;;;;;2.65;1.08;;;;;;;1.10;71.39;97908.50;4925844;29;20043;-91
2022/10/31 03:52:22;;;;;;;1.52;0.93;;;;;;;1.20;70.73;97921.03;4955412;29;20117;-92
2022/10/31 03:55:40;;;;;;;4.18;1.45;;;;;;;1.25;71.26;97942.50;4937732;29;20046;-92
2022/10/31 03:58:11;;;;;;;1.40;0.60;;;;;;;1.18;70.50;97940.16;4909981;29;20138;-92
2022/10/31 04:00:45;;;;;;;3.67;1.10;;;;;;;1.08;70.41;97920.63;4919414;29;20067;-92
2022/10/31 04:03:28;;;;;;;2.25;1.10;;;;;;;0.64;71.16;97846.28;4888442;29;20072;-91
2022/10/31 04:06:01;;;;;;;5.47;1.40;;;;;;;1.12;71.81;97937.78;4918755;29;20057;-90
2022/10/31 04:08:33;;;;;;;2.40;1.50;;;;;;;0.85;72.03;97892.59;4918927;29;20134;-90
2022/10/31 04:11:02;;;;;;;6.93;2.50;;;;;;;0.84;71.45;97885.63;4931760;29;20039;-90
2022/10/31 04:13:33;;;;;;;9.57;1.73;;;;;;;1.26;71.74;97945.97;4937822;29;20056;-91
2022/10/31 04:16:15;;;;;;;2.88;1.02;;;;;;;1.03;71.97;97918.00;4923688;29;20043;-90
2022/10/31 04:18:41;;;;;;;2.38;1.10;;;;;;;1.12;71.67;97937.78;4930239;29;20146;-90
2022/10/31 04:21:08;;;;;;;6.10;0.90;;;;;;;0.92;72.21;97934.22;4916460;28;20604;-93
2022/10/31 04:23:35;;;;;;;4.90;1.40;;;;;;;1.11;72.40;97949.66;4929199;28;20500;-90
2022/10/31 04:26:16;;;;;;;3.10;1.40;;;;;;;1.26;72.89;97962.97;4951799;28;20046;-90
2022/10/31 04:28:44;;;;;;;1.35;0.90;;;;;;;1.04;71.81;97933.03;4917851;28;20137;-93
2022/10/31 04:31:15;;;;;;;2.90;1.30;;;;;;;1.15;72.06;97948.78;4969382;28;20043;-90
2022/10/31 04:33:43;;;;;;;1.98;1.15;;;;;;;1.01;72.09;97918.25;4942428;28;20039;-90
2022/10/31 04:36:10;;;;;;;2.17;1.20;;;;;;;1.21;71.56;97951.44;4963994;28;20035;-93
2022/10/31 04:38:36;;;;;;;5.55;1.25;;;;;;;1.14;71.33;97935.63;4931247;28;20050;-90
2022/10/31 04:41:09;;;;;;;7.25;1.17;;;;;;;1.18;71.15;97956.28;4939454;29;20083;-90
2022/10/31 04:43:52;;;;;;;3.38;1.33;;;;;;;0.92;72.83;97914.59;4909450;29;20517;-90
2022/10/31 04:46:18;;;;;;;8.00;1.35;;;;;;;1.07;72.10;97943.25;4925596;29;20047;-92
2022/10/31 04:48:46;;;;;;;8.85;1.20;;;;;;;1.11;71.78;97957.72;4911429;29;20150;-95
2022/10/31 04:51:12;;;;;;;3.33;1.08;;;;;;;0.89;72.67;97948.25;4926250;29;20103;-94
2022/10/31 04:53:39;;;;;;;2.92;1.30;;;;;;;1.08;72.59;97961.78;4911010;29;20110;-93
2022/10/31 04:56:26;;;;;;;3.08;1.45;;;;;;;1.00;73.35;97964.31;4921639;29;20054;-94
2022/10/31 04:58:58;;;;;;;10.25;1.70;;;;;;;0.93;72.04;97946.59;4931888;29;20134;-94
2022/10/31 05:01:25;;;;;;;;;;;;;;;1.25;72.06;97998.22;4932073;29;20184;-95
2022/10/31 05:03:51;;;;;;;6.75;1.55;;;;;;;0.82;71.96;97931.63;4928528;29;20399;-93
2022/10/31 05:06:17;;;;;;;6.25;1.30;;;;;;;1.22;71.76;97999.59;4928391;29;20094;-93
2022/10/31 05:08:43;;;;;;;2.92;1.08;;;;;;;0.76;71.78;97916.59;4948289;29;20054;-93
2022/10/31 05:11:14;;;;;;;6.68;0.80;;;;;;;1.22;71.70;98004.16;4929587;29;20054;-94
2022/10/31 05:13:40;;;;;;;6.10;1.10;;;;;;;0.76;71.99;97927.38;4912861;29;20098;-92
2022/10/31 05:16:07;;;;;;;5.80;1.85;;;;;;;0.51;72.34;97885.38;4947184;29;20047;-94
2022/10/31 05:19:05;;;;;;;5.65;1.27;;;;;;;1.29;72.27;98024.31;4905907;29;20058;-93
2022/10/31 05:21:50;;;;;;;4.35;1.20;;;;;;;1.31;71.94;98019.41;4934281;29;20111;-93
2022/10/31 05:24:18;;;;;;;3.00;1.38;;;;;;;0.92;71.97;97957.63;4924080;29;20042;-92
2022/10/31 05:26:48;;;;;;;1.15;0.90;;;;;;;1.13;71.48;98009.38;4930307;29;20513;-91
2022/10/31 05:29:14;;;;;;;4.25;1.20;;;;;;;1.13;71.58;98007.50;4912374;29;20040;-88
2022/10/31 05:31:40;;;;;;;6.50;1.13;;;;;;;0.91;71.33;97964.91;4917371;29;20050;-86
2022/10/31 05:34:13;;;;;;;3.25;1.70;;;;;;;1.25;71.04;98012.47;4911435;29;20046;-87
2022/10/31 05:37:14;;;;;;;4.07;1.40;;;;;;;1.36;70.80;98013.19;4928405;29;20141;-92
2022/10/31 05:39:41;;;;;;;;;;;;;;;1.51;70.40;98039.97;4940401;29;20066;-86
2022/10/31 05:42:13;;;;;;;8.80;0.90;;;;;;;1.49;70.30;98034.06;4924549;29;20016;-88
2022/10/31 05:44:39;;;;;;;8.65;1.60;;;;;;;1.62;70.10;98051.41;4891186;29;20410;-88
2022/10/31 05:47:20;;;;;;;4.70;1.30;;;;;;;1.61;69.30;98044.44;4925265;29;20130;-88
2022/10/31 05:49:55;;;;;;;6.07;1.50;;;;;;;1.59;69.41;98028.56;4937355;29;20047;-90
2022/10/31 05:52:24;;;;;;;2.00;1.15;;;;;;;1.52;70.00;98005.75;4931712;29;20052;-88
2022/10/31 05:54:59;;;;;;;2.72;1.50;;;;;;;1.78;69.02;98046.69;4921957;29;20854;-88
2022/10/31 05:57:25;;;;;;;22.48;2.13;;;;;;;1.86;68.94;98063.03;4936921;29;20134;-87
2022/10/31 05:59:52;;;;;;;13.38;1.40;;;;;;;2.08;69.09;98070.56;4916383;29;20071;-89
2022/10/31 06:02:20;;;;;;;4.00;1.02;;;;;;;1.83;68.49;98025.88;4909352;29;20099;-89
2022/10/31 06:05:07;;;;;;;9.88;1.58;;;;;;;1.71;68.48;98009.31;4934538;29;20047;-86
2022/10/31 06:07:35;;;;;;;7.95;1.40;;;;;;;2.26;68.53;98098.69;4907908;29;20047;-86
2022/10/31 06:10:04;;;;;;;7.63;1.90;;;;;;;2.26;67.53;98095.19;4946617;29;20046;-88
2022/10/31 06:12:30;;;;;;;8.63;1.52;;;;;;;2.20;67.58;98066.69;4920314;29;20051;-88
2022/10/31 06:15:19;;;;;;;2.08;1.00;;;;;;;2.09;67.34;98072.19;4944318;29;20051;-85
2022/10/31 06:17:46;;;;;;;;;;;;;;;2.42;67.96;98111.94;4928256;29;20044;-87
2022/10/31 06:20:24;;;;;;;6.82;1.88;;;;;;;2.36;68.53;98122.03;4920191;29;20312;-84
2022/10/31 06:22:57;;;;;;;6.30;1.67;;;;;;;2.17;68.73;98092.31;4919855;29;20044;-89
2022/10/31 06:25:24;;;;;;;4.72;1.52;;;;;;;2.18;68.04;98109.28;4938064;29;20036;-86
2022/10/31 06:27:52;;;;;;;3.35;1.60;;;;;;;2.45;68.14;98131.09;4937287;29;20051;-85
2022/10/31 06:30:20;;;;;;;5.35;2.15;;;;;;;2.35;69.28;98125.78;4924876;29;20097;-85
2022/10/31 06:32:47;;;;;;;5.38;2.05;;;;;;;2.45;69.06;98147.25;4935738;29;20054;-84
2022/10/31 06:35:13;;;;;;;3.40;1.70;;;;;;;2.52;69.29;98139.63;4926577;29;20529;-86
2022/10/31 06:37:41;;;;;;;11.52;1.67;;;;;;;2.39;69.49;98140.31;4921763;29;20043;-86
2022/10/31 06:40:28;;;;;;;32.15;2.70;;;;;;;2.48;69.75;98154.75;4904407;29;20047;-87
2022/10/31 06:43:14;;;;;;;6.63;1.52;;;;;;;2.46;69.92;98150.75;4908731;29;20047;-87
2022/10/31 06:45:41;;;;;;;5.63;1.48;;;;;;;2.60;69.67;98189.44;4909712;29;20050;-86
2022/10/31 06:48:46;;;;;;;5.22;1.58;;;;;;;2.57;70.10;98168.41;4861734;29;20042;-86
2022/10/31 06:51:18;;;;;;;11.45;2.17;;;;;;;2.65;70.51;98185.84;4829127;29;20064;-87
2022/10/31 06:53:45;;;;;;;11.45;1.80;;;;;;;2.68;70.14;98190.66;4827777;29;20152;-88
2022/10/31 06:56:13;;;;;;;3.40;1.70;;;;;;;2.43;69.87;98145.94;4840151;29;20485;-84
2022/10/31 06:58:45;;;;;;;7.28;1.83;;;;;;;2.79;70.15;98192.16;4844625;29;20135;-86
2022/10/31 07:01:17;;;;;;;3.88;1.42;;;;;;;2.57;69.43;98187.31;4808698;29;20053;-85
2022/10/31 07:03:43;;;;;;;2.65;1.60;;;;;;;2.61;70.10;98191.03;4855494;29;20772;-85
2022/10/31 07:06:10;;;;;;;5.75;1.90;;;;;;;2.73;69.62;98201.41;4842072;29;20726;-88
2022/10/31 07:08:38;;;;;;;6.45;1.90;;;;;;;2.98;69.58;98216.47;4826154;29;20048;-87
2022/10/31 07:11:04;;;;;;;4.55;2.15;;;;;;;3.02;69.02;98196.72;4863062;29;20157;-90
2022/10/31 07:13:30;;;;;;;15.87;2.20;;;;;;;3.02;67.40;98194.00;4828267;29;20140;-85
2022/10/31 07:16:06;;;;;;;11.35;2.17;;;;;;;3.15;67.43;98240.28;4845148;29;20352;-88
2022/10/31 07:18:35;;;;;;;19.52;2.38;;;;;;;3.03;68.05;98225.31;4794846;29;20051;-85
2022/10/31 07:21:03;;;;;;;8.52;2.20;;;;;;;3.03;68.06;98238.81;4867656;29;20101;-92
2022/10/31 07:23:29;;;;;;;4.18;1.83;;;;;;;2.75;67.86;98231.63;4849318;29;20051;-90
2022/10/31 07:26:14;;;;;;;25.80;2.47;;;;;;;2.72;68.31;98235.69;4887020;29;20426;-84
2022/10/31 07:28:47;;;;;;;22.55;2.50;;;;;;;2.81;68.44;98282.56;4849423;29;20059;-86
2022/10/31 07:31:17;;;;;;;16.83;2.75;;;;;;;2.86;68.51;98264.69;4855854;29;20044;-91
2022/10/31 07:33:46;;;;;;;21.17;3.42;;;;;;;3.14;68.39;98290.78;4871624;29;20052;-90
2022/10/31 07:36:28;;;;;;;23.27;2.85;;;;;;;3.04;67.93;98275.50;4867862;29;20056;-86
2022/10/31 07:38:59;;;;;;;8.77;2.72;;;;;;;3.04;69.13;98280.91;4864220;29;20049;-87
2022/10/31 07:41:25;;;;;;;11.90;2.60;;;;;;;3.09;69.89;98306.25;4867054;29;20074;-86
2022/10/31 07:43:52;;;;;;;34.60;3.35;;;;;;;3.02;68.54;98296.59;4884297;29;20127;-86
2022/10/31 07:46:39;;;;;;;7.82;2.40;;;;;;;2.97;68.73;98293.94;4897678;29;20132;-87
2022/10/31 07:49:25;;;;;;;7.75;2.28;;;;;;;2.99;68.77;98348.47;4882970;29;20044;-86
2022/10/31 07:52:11;;;;;;;5.93;2.88;;;;;;;3.02;69.23;98328.19;4885466;29;20044;-84
2022/10/31 07:54:56;;;;;;;14.75;2.67;;;;;;;3.04;68.57;98339.50;4886908;29;20087;-86
2022/10/31 07:57:23;;;;;;;;;;;;;;;2.96;68.42;98349.03;4882420;29;20040;-86
2022/10/31 07:59:49;;;;;;;12.60;2.85;;;;;;;2.84;68.64;98329.72;4898119;29;19930;-85
2022/10/31 08:02:18;;;;;;;6.90;2.30;;;;;;;3.07;68.48;98349.72;4923449;29;20051;-88
2022/10/31 08:05:03;;;;;;;15.25;2.50;;;;;;;3.14;67.27;98343.97;4958695;28;20119;-85
2022/10/31 08:07:29;;;;;;;18.80;2.95;;;;;;;3.03;66.86;98336.00;4952826;28;20105;-84
2022/10/31 08:10:04;;;;;;;9.20;2.58;;;;;;;2.98;66.93;98330.66;4919177;29;20055;-84
2022/10/31 08:12:32;;;;;;;13.95;2.67;;;;;;;3.21;66.54;98384.94;4943023;29;20512;-84
2022/10/31 08:15:01;;;;;;;7.15;2.55;;;;;;;3.10;66.05;98359.94;4946617;29;20044;-83
2022/10/31 08:17:29;;;;;;;4.90;1.98;;;;;;;3.23;65.81;98367.34;4936314;28;20067;-84
2022/10/31 08:19:58;;;;;;;14.27;2.20;;;;;;;3.39;65.63;98383.41;4949976;28;20034;-85
2022/10/31 08:22:30;;;;;;;8.00;2.28;;;;;;;3.37;64.93;98372.84;4972400;28;20043;-86
2022/10/31 08:25:00;;;;;;;6.13;1.58;;;;;;;3.33;64.76;98404.25;4953001;28;20055;-89
2022/10/31 08:27:29;;;;;;;9.40;2.80;;;;;;;3.41;65.14;98371.22;4955149;29;20059;-84
2022/10/31 08:29:59;;;;;;;17.15;3.00;;;;;;;3.67;64.74;98379.78;4962269;28;20047;-85
2022/10/31 08:32:26;;;;;;;8.93;2.03;;;;;;;3.62;65.00;98409.59;4982187;28;20043;-86
2022/10/31 08:34:52;;;;;;;17.53;4.03;;;;;;;3.61;65.84;98391.75;4972585;28;20035;-86
2022/10/31 08:37:30;;;;;;;14.32;2.60;;;;;;;3.69;66.57;98406.53;4981287;28;20044;-84
2022/10/31 08:39:56;;;;;;;4.65;2.08;;;;;;;3.57;67.15;98406.94;4957311;28;20087;-86
2022/10/31 08:42:24;;;;;;;;;;;;;;;3.79;66.65;98441.53;4926326;28;20062;-86
2022/10/31 08:44:50;;;;;;;24.77;3.07;;;;;;;3.56;67.98;98399.13;4957961;28;19910;-86
2022/10/31 08:47:17;;;;;;;7.05;2.35;;;;;;;3.59;68.95;98458.78;4957865;28;20027;-85
2022/10/31 08:49:44;;;;;;;10.45;3.10;;;;;;;3.37;70.37;98435.00;4940203;28;20046;-86
2022/10/31 08:52:11;;;;;;;8.57;2.60;;;;;;;3.31;69.38;98446.94;4929089;28;20067;-85
2022/10/31 08:54:40;;;;;;;6.97;2.60;;;;;;;3.21;69.72;98438.94;4959983;28;20050;-87
2022/10/31 08:57:25;;;;;;;9.48;2.97;;;;;;;3.35;69.78;98458.00;4976331;28;20031;-87
2022/10/31 08:59:52;;;;;;;12.60;2.88;;;;;;;3.50;69.31;98453.22;4962191;28;20034;-85
2022/10/31 09:02:31;;;;;;;5.50;2.20;;;;;;;3.58;66.68;98440.19;4959773;28;20068;-85
2022/10/31 09:04:59;;;;;;;5.32;2.47;;;;;;;3.77;65.59;98465.31;4962976;28;20035;-87
2022/10/31 09:07:26;;;;;;;5.47;2.42;;;;;;;3.56;65.96;98429.66;4958045;28;20031;-86
2022/10/31 09:09:59;;;;;;;11.30;2.40;;;;;;;3.49;65.25;98423.78;4951848;29;20232;-86
2022/10/31 09:12:30;;;;;;;9.95;2.45;;;;;;;3.58;66.11;98438.28;4932797;28;20035;-86
2022/10/31 09:15:28;;;;;;;16.85;3.03;;;;;;;3.53;64.10;98436.44;4914754;28;20062;-87
2022/10/31 09:18:08;;;;;;;14.43;3.25;;;;;;;3.87;65.13;98453.59;4960184;28;20043;-85
2022/10/31 09:20:48;;;;;;;10.45;3.30;;;;;;;4.02;64.66;98441.78;4956054;28;20031;-85
2022/10/31 09:23:24;;;;;;;12.98;3.00;;;;;;;4.00;62.61;98444.75;4982169;28;20046;-86
2022/10/31 09:25:51;;;;;;;6.38;1.55;;;;;;;3.84;59.70;98467.69;4954206;28;20039;-86
2022/10/31 09:28:31;;;;;;;9.95;1.98;;;;;;;3.68;60.08;98496.81;4964597;28;20079;-85
2022/10/31 09:31:04;;;;;;;23.00;2.10;;;;;;;3.58;60.11;98513.16;4967509;28;20059;-84
2022/10/31 09:33:56;;;;;;;9.70;1.88;;;;;;;3.61;59.51;98509.84;4951437;28;20043;-85
2022/10/31 09:36:31;;;;;;;7.13;2.22;;;;;;;3.41;60.51;98487.38;4960279;28;20067;-88
2022/10/31 09:38:59;;;;;;;4.57;2.13;;;;;;;3.25;60.87;98472.41;4921115;29;20054;-86
2022/10/31 09:41:59;;;;;;;9.77;2.45;;;;;;;3.48;61.20;98501.34;4952527;28;20163;-85
2022/10/31 09:44:51;;;;;;;6.22;2.00;;;;;;;3.90;60.57;98523.31;4925907;28;20556;-88
2022/10/31 09:47:31;;;;;;;3.50;2.30;;;;;;;3.99;60.37;98513.47;4952800;28;20497;-86
2022/10/31 09:50:44;;;;;;;7.97;2.97;;;;;;;3.84;61.23;98489.31;4958532;28;20050;-86
2022/10/31 09:53:48;;;;;;;5.03;2.72;;;;;;;4.09;60.29;98528.75;4951838;29;20046;-92
2022/10/31 09:56:26;;;;;;;5.28;2.42;;;;;;;4.03;60.96;98538.03;4940976;29;20055;-90
2022/10/31 09:59:00;;;;;;;4.63;2.20;;;;;;;3.72;59.76;98528.38;4941465;28;20050;-88
2022/10/31 10:02:16;;;;;;;15.10;1.70;;;;;;;3.90;59.10;98569.25;4932143;28;20039;-88
2022/10/31 10:04:57;;;;;;;5.90;2.20;;;;;;;3.69;60.02;98517.34;4927594;28;20039;-88
2022/10/31 10:07:49;;;;;;;4.85;2.10;;;;;;;3.57;60.32;98533.94;4937876;29;20044;-87
2022/10/31 10:10:50;;;;;;;4.60;2.17;;;;;;;4.11;60.83;98577.97;4931763;28;20541;-88
2022/10/31 10:14:02;;;;;;;10.02;1.40;;;;;;;4.08;59.23;98578.53;4955275;28;20043;-86
2022/10/31 10:16:37;;;;;;;3.33;1.67;;;;;;;4.14;59.62;98607.13;4954587;28;20062;-88
2022/10/31 10:19:28;;;;;;;11.20;1.70;;;;;;;3.93;60.00;98612.75;4940098;28;20130;-89
2022/10/31 10:22:27;;;;;;;5.47;1.60;;;;;;;3.89;60.50;98597.41;4937909;29;20473;-88
2022/10/31 10:25:12;;;;;;;10.57;1.75;;;;;;;3.97;60.78;98615.69;4920154;29;20183;-89
2022/10/31 10:28:38;;;;;;;16.67;2.03;;;;;;;3.62;61.63;98566.31;4937414;28;20043;-89
2022/10/31 10:31:22;;;;;;;5.03;1.70;;;;;;;4.04;61.65;98623.47;4841715;29;20053;-90
2022/10/31 10:34:10;;;;;;;3.13;1.95;;;;;;;4.07;61.46;98623.69;4826456;29;20053;-86
2022/10/31 10:36:46;;;;;;;3.40;1.48;;;;;;;4.08;61.76;98633.44;4839319;29;20239;-86
2022/10/31 10:39:28;;;;;;;5.95;2.42;;;;;;;4.24;62.92;98631.38;4856253;29;20056;-85
2022/10/31 10:47:41;;;;;;;3.40;1.80;;;;;;;4.17;63.30;98622.78;4841706;29;20044;-87
2022/10/31 10:50:20;;;;;;;3.75;1.83;;;;;;;4.30;62.40;98632.91;4852950;29;20050;-86
2022/10/31 10:53:20;;;;;;;2.42;1.50;;;;;;;4.10;62.59;98622.31;4839983;29;20097;-84
2022/10/31 10:56:20;;;;;;;4.18;1.60;;;;;;;4.16;63.86;98623.88;4843895;29;20056;-85
2022/10/31 10:58:49;;;;;;;3.92;1.38;;;;;;;4.51;64.08;98619.16;4846620;29;20546;-87
2022/10/31 11:01:15;;;;;;;2.92;1.40;;;;;;;4.35;63.53;98589.56;4826204;29;20152;-88
2022/10/31 11:03:42;;;;;;;6.10;1.42;;;;;;;4.48;61.93;98602.38;4857724;29;20041;-90
2022/10/31 11:06:22;;;;;;;7.78;1.48;;;;;;;4.71;61.64;98643.25;4854901;29;20094;-90
2022/10/31 11:08:49;;;;;;;4.22;1.20;;;;;;;4.43;61.78;98617.88;4883409;29;20078;-87
2022/10/31 11:11:18;;;;;;;10.23;1.20;;;;;;;4.37;61.19;98641.50;4901223;29;20044;-91
2022/10/31 11:13:47;;;;;;;5.53;1.10;;;;;;;3.98;61.42;98582.16;4916989;29;20078;-88
2022/10/31 11:16:26;;;;;;;5.75;1.77;;;;;;;4.16;61.07;98591.41;4910558;29;20126;-89
2022/10/31 11:18:53;;;;;;;12.98;2.40;;;;;;;4.02;61.03;98583.19;4898044;29;20135;-88
2022/10/31 11:21:30;;;;;;;12.27;1.77;;;;;;;4.16;60.65;98577.91;4909087;29;20443;-88
2022/10/31 11:24:09;;;;;;;10.43;3.47;;;;;;;4.41;60.57;98599.25;4899952;29;20596;-91
2022/10/31 11:26:40;;;;;;;4.45;1.98;;;;;;;4.29;60.46;98579.09;4884225;29;20068;-91
2022/10/31 11:29:15;;;;;;;3.03;1.63;;;;;;;4.19;60.96;98583.53;4901633;29;20048;-88
2022/10/31 11:31:47;;;;;;;13.02;3.22;;;;;;;4.13;60.56;98554.13;4914768;29;20079;-89
2022/10/31 11:34:22;;;;;;;6.72;2.28;;;;;;;4.35;60.80;98621.22;4913674;29;20056;-87
2022/10/31 11:36:48;;;;;;;13.48;3.50;;;;;;;4.00;62.15;98552.94;4907566;29;20498;-93
2022/10/31 11:39:22;;;;;;;8.95;3.33;;;;;;;4.39;62.77;98635.78;4885810;29;20545;-91
2022/10/31 11:41:50;;;;;;;4.15;2.45;;;;;;;4.26;62.59;98595.91;4907042;29;20069;-89
2022/10/31 11:44:20;;;;;;;14.20;6.30;;;;;;;4.36;62.83;98598.50;4877890;29;20127;-90
2022/10/31 11:46:51;;;;;;;18.60;9.15;;;;;;;4.48;62.51;98645.69;4896710;29;20089;-92
2022/10/31 11:49:20;;;;;;;39.05;18.70;;;;;;;4.10;62.60;98631.22;4896434;29;20052;-89
2022/10/31 11:51:53;;;;;;;24.30;8.80;;;;;;;4.27;63.29;98643.50;4937531;29;20490;-90
2022/10/31 11:54:31;;;;;;;3.42;1.80;;;;;;;4.22;62.92;98630.84;4933711;29;20036;-91
2022/10/31 11:57:00;;;;;;;7.93;2.58;;;;;;;4.40;62.77;98645.50;4897765;29;20600;-90
2022/10/31 11:59:32;;;;;;;7.87;2.50;;;;;;;3.98;61.96;98590.28;4911082;29;20039;-89
2022/10/31 12:02:01;;;;;;;7.13;3.65;;;;;;;4.19;62.54;98631.41;4903659;29;20055;-90
2022/10/31 12:04:49;;;;;;;20.75;8.88;;;;;;;4.37;61.61;98657.75;4910140;29;21748;-89
2022/10/31 12:07:15;;;;;;;21.77;9.35;;;;;;;4.24;62.30;98644.91;4910901;29;20055;-87
2022/10/31 12:09:41;;;;;;;52.65;21.15;;;;;;;4.38;61.65;98659.34;4904527;29;20402;-86
2022/10/31 12:12:36;;;;;;;30.50;14.52;;;;;;;4.21;61.77;98626.53;4930872;29;20123;-86
2022/10/31 12:15:33;;;;;;;13.32;4.50;;;;;;;4.46;61.97;98682.25;4934561;29;20102;-87
2022/10/31 12:18:17;;;;;;;21.90;5.32;;;;;;;4.53;62.40;98687.31;4934966;29;20051;-89
2022/10/31 12:21:31;;;;;;;6.38;1.63;;;;;;;4.36;61.58;98672.34;4910310;29;20040;-86
2022/10/31 12:24:18;;;;;;;3.90;1.92;;;;;;;4.38;62.32;98683.69;4918843;29;20501;-88
2022/10/31 12:27:06;;;;;;;6.20;2.58;;;;;;;4.30;63.00;98699.75;4917207;29;20150;-90